sensor_id;sensor_type;location;lat;lon;timestamp;P1;durP1;ratioP1;P2;durP2;ratioP2
14754;SDS011;7469;50.906;6.952;2023-02-22T00:02:04;33.40;;;18.13;;
14754;SDS011;7469;50.906;6.952;2023-02-22T00:04:51;33.57;;;17.37;;
14754;SDS011;7469;50.906;6.952;2023-02-22T00:07:19;27.93;;;16.57;;
14754;SDS011;7469;50.906;6.952;2023-02-22T00:09:49;25.43;;;15.17;;
14754;SDS011;7469;50.906;6.952;2023-02-22T00:12:17;29.20;;;14.47;;
14754;SDS011;7469;50.906;6.952;2023-02-22T00:14:45;31.27;;;15.17;;
14754;SDS011;7469;50.906;6.952;2023-02-22T00:17:13;35.33;;;16.57;;
14754;SDS011;7469;50.906;6.952;2023-02-22T00:19:41;32.13;;;15.33;;
14754;SDS011;7469;50.906;6.952;2023-02-22T00:22:10;23.23;;;14.60;;
14754;SDS011;7469;50.906;6.952;2023-02-22T00:24:38;25.53;;;14.37;;
14754;SDS011;7469;50.906;6.952;2023-02-22T00:27:06;31.40;;;14.20;;
14754;SDS011;7469;50.906;6.952;2023-02-22T00:29:34;28.13;;;15.63;;
14754;SDS011;7469;50.906;6.952;2023-02-22T00:32:02;33.37;;;16.47;;
14754;SDS011;7469;50.906;6.952;2023-02-22T00:34:30;29.27;;;16.33;;
14754;SDS011;7469;50.906;6.952;2023-02-22T00:36:58;34.13;;;17.47;;
14754;SDS011;7469;50.906;6.952;2023-02-22T00:39:29;31.27;;;17.03;;
14754;SDS011;7469;50.906;6.952;2023-02-22T00:41:57;31.30;;;17.43;;
14754;SDS011;7469;50.906;6.952;2023-02-22T00:44:25;27.67;;;15.73;;
14754;SDS011;7469;50.906;6.952;2023-02-22T00:46:53;32.03;;;17.17;;
14754;SDS011;7469;50.906;6.952;2023-02-22T00:49:21;30.90;;;17.37;;
14754;SDS011;7469;50.906;6.952;2023-02-22T00:51:51;27.33;;;15.80;;
14754;SDS011;7469;50.906;6.952;2023-02-22T00:54:20;37.07;;;18.33;;
14754;SDS011;7469;50.906;6.952;2023-02-22T00:56:49;34.90;;;17.77;;
14754;SDS011;7469;50.906;6.952;2023-02-22T00:59:18;33.70;;;16.83;;
14754;SDS011;7469;50.906;6.952;2023-02-22T01:01:46;32.13;;;18.27;;
14754;SDS011;7469;50.906;6.952;2023-02-22T01:04:14;31.67;;;18.43;;
14754;SDS011;7469;50.906;6.952;2023-02-22T01:06:43;36.37;;;18.10;;
14754;SDS011;7469;50.906;6.952;2023-02-22T01:09:11;40.97;;;19.70;;
14754;SDS011;7469;50.906;6.952;2023-02-22T01:11:39;37.53;;;20.70;;
14754;SDS011;7469;50.906;6.952;2023-02-22T01:14:08;42.80;;;20.27;;
14754;SDS011;7469;50.906;6.952;2023-02-22T01:16:36;40.27;;;19.20;;
14754;SDS011;7469;50.906;6.952;2023-02-22T01:19:04;41.17;;;21.43;;
14754;SDS011;7469;50.906;6.952;2023-02-22T01:21:33;44.80;;;20.03;;
14754;SDS011;7469;50.906;6.952;2023-02-22T01:24:00;38.50;;;20.23;;
14754;SDS011;7469;50.906;6.952;2023-02-22T01:26:28;46.00;;;21.23;;
14754;SDS011;7469;50.906;6.952;2023-02-22T01:28:56;45.90;;;22.30;;
14754;SDS011;7469;50.906;6.952;2023-02-22T01:31:26;47.83;;;22.07;;
14754;SDS011;7469;50.906;6.952;2023-02-22T01:33:54;44.40;;;22.77;;
14754;SDS011;7469;50.906;6.952;2023-02-22T01:36:22;40.53;;;22.63;;
14754;SDS011;7469;50.906;6.952;2023-02-22T01:38:49;62.50;;;21.47;;
14754;SDS011;7469;50.906;6.952;2023-02-22T01:41:18;43.23;;;22.37;;
14754;SDS011;7469;50.906;6.952;2023-02-22T01:43:47;46.40;;;22.10;;
14754;SDS011;7469;50.906;6.952;2023-02-22T01:46:18;46.20;;;21.37;;
14754;SDS011;7469;50.906;6.952;2023-02-22T01:48:50;39.50;;;19.03;;
14754;SDS011;7469;50.906;6.952;2023-02-22T01:51:21;41.30;;;19.53;;
14754;SDS011;7469;50.906;6.952;2023-02-22T01:53:51;42.40;;;19.93;;
14754;SDS011;7469;50.906;6.952;2023-02-22T01:56:23;37.93;;;20.07;;
14754;SDS011;7469;50.906;6.952;2023-02-22T01:58:55;40.10;;;19.87;;
14754;SDS011;7469;50.906;6.952;2023-02-22T02:01:27;38.77;;;19.10;;
14754;SDS011;7469;50.906;6.952;2023-02-22T02:04:00;39.13;;;19.60;;
14754;SDS011;7469;50.906;6.952;2023-02-22T02:06:32;37.57;;;19.07;;
14754;SDS011;7469;50.906;6.952;2023-02-22T02:09:03;38.53;;;20.40;;
14754;SDS011;7469;50.906;6.952;2023-02-22T02:11:37;35.90;;;19.53;;
14754;SDS011;7469;50.906;6.952;2023-02-22T02:14:07;41.10;;;20.63;;
14754;SDS011;7469;50.906;6.952;2023-02-22T02:16:37;38.97;;;19.73;;
14754;SDS011;7469;50.906;6.952;2023-02-22T02:19:13;42.67;;;19.37;;
14754;SDS011;7469;50.906;6.952;2023-02-22T02:21:57;41.40;;;19.50;;
14754;SDS011;7469;50.906;6.952;2023-02-22T02:27:42;42.27;;;18.90;;
14754;SDS011;7469;50.906;6.952;2023-02-22T02:33:43;37.70;;;19.17;;
14754;SDS011;7469;50.906;6.952;2023-02-22T02:36:20;38.53;;;18.23;;
14754;SDS011;7469;50.906;6.952;2023-02-22T02:38:56;30.97;;;17.80;;
14754;SDS011;7469;50.906;6.952;2023-02-22T02:41:32;38.90;;;18.13;;
14754;SDS011;7469;50.906;6.952;2023-02-22T02:44:07;45.37;;;17.67;;
14754;SDS011;7469;50.906;6.952;2023-02-22T02:46:42;33.67;;;18.10;;
14754;SDS011;7469;50.906;6.952;2023-02-22T02:49:17;35.63;;;17.70;;
14754;SDS011;7469;50.906;6.952;2023-02-22T02:51:49;45.63;;;19.50;;
14754;SDS011;7469;50.906;6.952;2023-02-22T02:54:20;30.53;;;16.83;;
14754;SDS011;7469;50.906;6.952;2023-02-22T02:56:49;30.20;;;16.70;;
14754;SDS011;7469;50.906;6.952;2023-02-22T02:59:22;34.40;;;16.03;;
14754;SDS011;7469;50.906;6.952;2023-02-22T03:01:55;29.53;;;16.67;;
14754;SDS011;7469;50.906;6.952;2023-02-22T03:04:39;34.50;;;16.93;;
14754;SDS011;7469;50.906;6.952;2023-02-22T03:07:22;30.93;;;16.13;;
14754;SDS011;7469;50.906;6.952;2023-02-22T03:10:20;24.97;;;15.47;;
14754;SDS011;7469;50.906;6.952;2023-02-22T03:13:01;31.27;;;17.13;;
14754;SDS011;7469;50.906;6.952;2023-02-22T03:15:41;30.03;;;15.40;;
14754;SDS011;7469;50.906;6.952;2023-02-22T03:18:17;26.20;;;15.87;;
14754;SDS011;7469;50.906;6.952;2023-02-22T03:20:57;30.43;;;15.83;;
14754;SDS011;7469;50.906;6.952;2023-02-22T03:23:28;31.33;;;15.83;;
14754;SDS011;7469;50.906;6.952;2023-02-22T03:26:00;28.87;;;16.10;;
14754;SDS011;7469;50.906;6.952;2023-02-22T03:28:33;27.80;;;15.37;;
14754;SDS011;7469;50.906;6.952;2023-02-22T03:31:03;24.73;;;14.03;;
14754;SDS011;7469;50.906;6.952;2023-02-22T03:33:36;27.50;;;15.20;;
14754;SDS011;7469;50.906;6.952;2023-02-22T03:36:10;22.93;;;13.30;;
14754;SDS011;7469;50.906;6.952;2023-02-22T03:38:41;27.63;;;14.63;;
14754;SDS011;7469;50.906;6.952;2023-02-22T03:41:10;22.00;;;13.67;;
14754;SDS011;7469;50.906;6.952;2023-02-22T03:43:43;23.73;;;13.67;;
14754;SDS011;7469;50.906;6.952;2023-02-22T03:46:16;24.53;;;14.90;;
14754;SDS011;7469;50.906;6.952;2023-02-22T03:48:46;24.30;;;14.27;;
14754;SDS011;7469;50.906;6.952;2023-02-22T03:51:21;25.47;;;14.03;;
14754;SDS011;7469;50.906;6.952;2023-02-22T03:53:50;24.77;;;14.07;;
14754;SDS011;7469;50.906;6.952;2023-02-22T03:56:19;24.97;;;14.10;;
14754;SDS011;7469;50.906;6.952;2023-02-22T03:58:51;28.17;;;15.13;;
14754;SDS011;7469;50.906;6.952;2023-02-22T04:01:20;29.13;;;14.13;;
14754;SDS011;7469;50.906;6.952;2023-02-22T04:03:48;25.97;;;14.50;;
14754;SDS011;7469;50.906;6.952;2023-02-22T04:06:16;24.63;;;14.10;;
14754;SDS011;7469;50.906;6.952;2023-02-22T04:08:46;25.77;;;15.00;;
14754;SDS011;7469;50.906;6.952;2023-02-22T04:11:14;26.90;;;14.27;;
14754;SDS011;7469;50.906;6.952;2023-02-22T04:13:42;24.43;;;14.13;;
14754;SDS011;7469;50.906;6.952;2023-02-22T04:16:10;20.03;;;13.60;;
14754;SDS011;7469;50.906;6.952;2023-02-22T04:18:38;22.97;;;13.70;;
14754;SDS011;7469;50.906;6.952;2023-02-22T04:21:06;22.27;;;12.67;;
14754;SDS011;7469;50.906;6.952;2023-02-22T04:23:35;19.47;;;12.53;;
14754;SDS011;7469;50.906;6.952;2023-02-22T04:26:04;19.57;;;12.47;;
14754;SDS011;7469;50.906;6.952;2023-02-22T04:28:32;22.90;;;13.17;;
14754;SDS011;7469;50.906;6.952;2023-02-22T04:31:00;22.70;;;13.27;;
14754;SDS011;7469;50.906;6.952;2023-02-22T04:33:28;20.13;;;12.17;;
14754;SDS011;7469;50.906;6.952;2023-02-22T04:35:56;21.50;;;12.40;;
14754;SDS011;7469;50.906;6.952;2023-02-22T04:38:24;18.53;;;11.37;;
14754;SDS011;7469;50.906;6.952;2023-02-22T04:40:53;23.40;;;11.70;;
14754;SDS011;7469;50.906;6.952;2023-02-22T04:43:22;19.47;;;11.90;;
14754;SDS011;7469;50.906;6.952;2023-02-22T04:45:50;19.27;;;11.23;;
14754;SDS011;7469;50.906;6.952;2023-02-22T04:48:20;18.80;;;11.87;;
14754;SDS011;7469;50.906;6.952;2023-02-22T04:50:48;18.07;;;12.00;;
14754;SDS011;7469;50.906;6.952;2023-02-22T04:53:17;20.30;;;12.17;;
14754;SDS011;7469;50.906;6.952;2023-02-22T04:55:45;19.23;;;11.87;;
14754;SDS011;7469;50.906;6.952;2023-02-22T04:58:13;20.00;;;12.50;;
14754;SDS011;7469;50.906;6.952;2023-02-22T05:00:42;19.53;;;11.73;;
14754;SDS011;7469;50.906;6.952;2023-02-22T05:03:10;25.03;;;13.07;;
14754;SDS011;7469;50.906;6.952;2023-02-22T05:05:38;18.27;;;11.57;;
14754;SDS011;7469;50.906;6.952;2023-02-22T05:08:07;19.27;;;12.10;;
14754;SDS011;7469;50.906;6.952;2023-02-22T05:10:34;23.23;;;13.30;;
14754;SDS011;7469;50.906;6.952;2023-02-22T05:13:03;21.37;;;11.50;;
14754;SDS011;7469;50.906;6.952;2023-02-22T05:15:31;18.57;;;12.07;;
14754;SDS011;7469;50.906;6.952;2023-02-22T05:18:01;17.33;;;12.37;;
14754;SDS011;7469;50.906;6.952;2023-02-22T05:20:30;21.60;;;11.70;;
14754;SDS011;7469;50.906;6.952;2023-02-22T05:22:59;17.90;;;10.73;;
14754;SDS011;7469;50.906;6.952;2023-02-22T05:25:31;17.63;;;11.33;;
14754;SDS011;7469;50.906;6.952;2023-02-22T05:28:00;19.27;;;10.77;;
14754;SDS011;7469;50.906;6.952;2023-02-22T05:30:31;17.33;;;11.37;;
14754;SDS011;7469;50.906;6.952;2023-02-22T05:33:02;20.60;;;11.77;;
14754;SDS011;7469;50.906;6.952;2023-02-22T05:35:30;18.77;;;10.83;;
14754;SDS011;7469;50.906;6.952;2023-02-22T05:37:58;17.33;;;11.77;;
14754;SDS011;7469;50.906;6.952;2023-02-22T05:40:28;16.53;;;11.33;;
14754;SDS011;7469;50.906;6.952;2023-02-22T05:42:57;17.00;;;10.30;;
14754;SDS011;7469;50.906;6.952;2023-02-22T05:45:27;14.53;;;10.00;;
14754;SDS011;7469;50.906;6.952;2023-02-22T05:47:56;16.17;;;10.80;;
14754;SDS011;7469;50.906;6.952;2023-02-22T05:50:26;16.50;;;10.30;;
14754;SDS011;7469;50.906;6.952;2023-02-22T05:52:53;15.43;;;10.47;;
14754;SDS011;7469;50.906;6.952;2023-02-22T05:55:22;16.33;;;10.67;;
14754;SDS011;7469;50.906;6.952;2023-02-22T05:57:51;18.87;;;11.30;;
14754;SDS011;7469;50.906;6.952;2023-02-22T06:00:20;14.40;;;9.93;;
14754;SDS011;7469;50.906;6.952;2023-02-22T06:02:52;18.13;;;10.43;;
14754;SDS011;7469;50.906;6.952;2023-02-22T06:05:21;16.53;;;10.87;;
14754;SDS011;7469;50.906;6.952;2023-02-22T06:07:51;14.33;;;10.63;;
14754;SDS011;7469;50.906;6.952;2023-02-22T06:10:19;19.73;;;11.63;;
14754;SDS011;7469;50.906;6.952;2023-02-22T06:12:47;16.53;;;11.07;;
14754;SDS011;7469;50.906;6.952;2023-02-22T06:15:17;18.23;;;10.40;;
14754;SDS011;7469;50.906;6.952;2023-02-22T06:17:47;16.17;;;9.63;;
14754;SDS011;7469;50.906;6.952;2023-02-22T06:20:16;18.40;;;10.70;;
14754;SDS011;7469;50.906;6.952;2023-02-22T06:22:45;16.03;;;10.60;;
14754;SDS011;7469;50.906;6.952;2023-02-22T06:25:16;13.77;;;10.07;;
14754;SDS011;7469;50.906;6.952;2023-02-22T06:27:46;13.70;;;9.07;;
14754;SDS011;7469;50.906;6.952;2023-02-22T06:30:14;19.97;;;10.43;;
14754;SDS011;7469;50.906;6.952;2023-02-22T06:32:43;14.97;;;10.27;;
14754;SDS011;7469;50.906;6.952;2023-02-22T06:35:12;16.73;;;10.23;;
14754;SDS011;7469;50.906;6.952;2023-02-22T06:37:40;18.03;;;10.73;;
14754;SDS011;7469;50.906;6.952;2023-02-22T06:40:08;16.97;;;10.47;;
14754;SDS011;7469;50.906;6.952;2023-02-22T06:42:38;17.73;;;11.43;;
14754;SDS011;7469;50.906;6.952;2023-02-22T06:45:07;19.27;;;11.03;;
14754;SDS011;7469;50.906;6.952;2023-02-22T06:47:38;17.40;;;10.30;;
14754;SDS011;7469;50.906;6.952;2023-02-22T06:50:07;14.30;;;9.60;;
14754;SDS011;7469;50.906;6.952;2023-02-22T06:52:44;16.13;;;10.43;;
14754;SDS011;7469;50.906;6.952;2023-02-22T06:55:15;18.57;;;10.90;;
14754;SDS011;7469;50.906;6.952;2023-02-22T06:57:46;14.63;;;10.03;;
14754;SDS011;7469;50.906;6.952;2023-02-22T07:00:15;15.60;;;10.23;;
14754;SDS011;7469;50.906;6.952;2023-02-22T07:02:44;16.53;;;10.17;;
14754;SDS011;7469;50.906;6.952;2023-02-22T07:05:14;20.77;;;11.60;;
14754;SDS011;7469;50.906;6.952;2023-02-22T07:07:44;14.57;;;10.20;;
14754;SDS011;7469;50.906;6.952;2023-02-22T07:10:15;19.37;;;10.97;;
14754;SDS011;7469;50.906;6.952;2023-02-22T07:12:46;18.63;;;11.63;;
14754;SDS011;7469;50.906;6.952;2023-02-22T07:15:15;20.13;;;11.50;;
14754;SDS011;7469;50.906;6.952;2023-02-22T07:17:44;14.70;;;11.00;;
14754;SDS011;7469;50.906;6.952;2023-02-22T07:20:12;18.43;;;10.90;;
14754;SDS011;7469;50.906;6.952;2023-02-22T07:22:40;18.83;;;11.40;;
14754;SDS011;7469;50.906;6.952;2023-02-22T07:25:08;18.50;;;10.97;;
14754;SDS011;7469;50.906;6.952;2023-02-22T07:27:37;18.83;;;10.37;;
14754;SDS011;7469;50.906;6.952;2023-02-22T07:30:09;15.83;;;10.33;;
14754;SDS011;7469;50.906;6.952;2023-02-22T07:32:43;16.57;;;11.50;;
14754;SDS011;7469;50.906;6.952;2023-02-22T07:35:15;21.93;;;11.50;;
14754;SDS011;7469;50.906;6.952;2023-02-22T07:37:44;17.87;;;11.53;;
14754;SDS011;7469;50.906;6.952;2023-02-22T07:40:13;19.60;;;11.53;;
14754;SDS011;7469;50.906;6.952;2023-02-22T07:42:52;17.80;;;11.30;;
14754;SDS011;7469;50.906;6.952;2023-02-22T07:45:23;21.30;;;12.13;;
14754;SDS011;7469;50.906;6.952;2023-02-22T07:47:52;23.13;;;12.50;;
14754;SDS011;7469;50.906;6.952;2023-02-22T07:50:21;17.53;;;11.93;;
14754;SDS011;7469;50.906;6.952;2023-02-22T07:52:51;23.97;;;12.90;;
14754;SDS011;7469;50.906;6.952;2023-02-22T07:55:20;17.93;;;11.47;;
14754;SDS011;7469;50.906;6.952;2023-02-22T07:57:51;21.10;;;11.93;;
14754;SDS011;7469;50.906;6.952;2023-02-22T08:00:21;18.50;;;11.53;;
14754;SDS011;7469;50.906;6.952;2023-02-22T08:02:52;19.13;;;12.00;;
14754;SDS011;7469;50.906;6.952;2023-02-22T08:05:21;20.87;;;11.23;;
14754;SDS011;7469;50.906;6.952;2023-02-22T08:07:51;21.43;;;12.67;;
14754;SDS011;7469;50.906;6.952;2023-02-22T08:10:20;15.80;;;10.23;;
14754;SDS011;7469;50.906;6.952;2023-02-22T08:12:49;20.17;;;12.17;;
14754;SDS011;7469;50.906;6.952;2023-02-22T08:15:19;18.03;;;11.50;;
14754;SDS011;7469;50.906;6.952;2023-02-22T08:17:50;20.90;;;11.70;;
14754;SDS011;7469;50.906;6.952;2023-02-22T08:20:19;20.23;;;12.60;;
14754;SDS011;7469;50.906;6.952;2023-02-22T08:22:48;19.23;;;12.73;;
14754;SDS011;7469;50.906;6.952;2023-02-22T08:25:17;18.37;;;12.07;;
14754;SDS011;7469;50.906;6.952;2023-02-22T08:27:46;17.20;;;11.17;;
14754;SDS011;7469;50.906;6.952;2023-02-22T08:30:15;16.90;;;11.47;;
14754;SDS011;7469;50.906;6.952;2023-02-22T08:32:44;19.87;;;12.17;;
14754;SDS011;7469;50.906;6.952;2023-02-22T08:35:15;21.00;;;11.50;;
14754;SDS011;7469;50.906;6.952;2023-02-22T08:37:44;20.87;;;12.83;;
14754;SDS011;7469;50.906;6.952;2023-02-22T08:40:16;21.20;;;13.03;;
14754;SDS011;7469;50.906;6.952;2023-02-22T08:42:46;18.53;;;11.37;;
14754;SDS011;7469;50.906;6.952;2023-02-22T08:45:14;19.17;;;11.23;;
14754;SDS011;7469;50.906;6.952;2023-02-22T08:47:43;16.63;;;11.57;;
14754;SDS011;7469;50.906;6.952;2023-02-22T08:50:16;25.33;;;12.67;;
14754;SDS011;7469;50.906;6.952;2023-02-22T08:52:48;18.93;;;12.40;;
14754;SDS011;7469;50.906;6.952;2023-02-22T08:55:17;16.30;;;11.47;;
14754;SDS011;7469;50.906;6.952;2023-02-22T08:57:46;17.90;;;12.43;;
14754;SDS011;7469;50.906;6.952;2023-02-22T09:00:16;22.63;;;12.60;;
14754;SDS011;7469;50.906;6.952;2023-02-22T09:02:46;20.83;;;13.00;;
14754;SDS011;7469;50.906;6.952;2023-02-22T09:05:15;25.30;;;12.97;;
14754;SDS011;7469;50.906;6.952;2023-02-22T09:07:43;21.97;;;12.27;;
14754;SDS011;7469;50.906;6.952;2023-02-22T09:10:12;22.53;;;13.07;;
14754;SDS011;7469;50.906;6.952;2023-02-22T09:12:41;21.00;;;11.90;;
14754;SDS011;7469;50.906;6.952;2023-02-22T09:15:09;23.10;;;13.57;;
14754;SDS011;7469;50.906;6.952;2023-02-22T09:17:38;18.80;;;12.57;;
14754;SDS011;7469;50.906;6.952;2023-02-22T09:20:06;21.23;;;13.07;;
14754;SDS011;7469;50.906;6.952;2023-02-22T09:22:36;22.27;;;13.93;;
14754;SDS011;7469;50.906;6.952;2023-02-22T09:25:05;22.17;;;13.13;;
14754;SDS011;7469;50.906;6.952;2023-02-22T09:27:42;17.37;;;11.93;;
14754;SDS011;7469;50.906;6.952;2023-02-22T09:30:18;19.43;;;12.37;;
14754;SDS011;7469;50.906;6.952;2023-02-22T09:32:50;24.63;;;13.40;;
14754;SDS011;7469;50.906;6.952;2023-02-22T09:35:20;21.03;;;12.70;;
14754;SDS011;7469;50.906;6.952;2023-02-22T09:37:54;20.50;;;13.40;;
14754;SDS011;7469;50.906;6.952;2023-02-22T09:40:23;17.17;;;12.40;;
14754;SDS011;7469;50.906;6.952;2023-02-22T09:42:58;21.17;;;12.43;;
14754;SDS011;7469;50.906;6.952;2023-02-22T09:45:35;17.40;;;11.90;;
14754;SDS011;7469;50.906;6.952;2023-02-22T09:48:10;16.07;;;11.20;;
14754;SDS011;7469;50.906;6.952;2023-02-22T09:50:47;18.80;;;12.30;;
14754;SDS011;7469;50.906;6.952;2023-02-22T09:53:21;20.10;;;12.50;;
14754;SDS011;7469;50.906;6.952;2023-02-22T09:55:55;20.50;;;11.80;;
14754;SDS011;7469;50.906;6.952;2023-02-22T09:58:27;18.73;;;11.43;;
14754;SDS011;7469;50.906;6.952;2023-02-22T10:01:06;19.83;;;11.83;;
14754;SDS011;7469;50.906;6.952;2023-02-22T10:03:46;16.83;;;11.37;;
14754;SDS011;7469;50.906;6.952;2023-02-22T10:06:18;17.63;;;11.53;;
14754;SDS011;7469;50.906;6.952;2023-02-22T10:08:49;15.73;;;11.13;;
14754;SDS011;7469;50.906;6.952;2023-02-22T10:11:32;15.43;;;10.23;;
14754;SDS011;7469;50.906;6.952;2023-02-22T10:14:10;15.60;;;10.53;;
14754;SDS011;7469;50.906;6.952;2023-02-22T10:17:04;13.63;;;9.93;;
14754;SDS011;7469;50.906;6.952;2023-02-22T10:19:40;14.87;;;10.27;;
14754;SDS011;7469;50.906;6.952;2023-02-22T10:25:10;14.80;;;10.23;;
14754;SDS011;7469;50.906;6.952;2023-02-22T10:27:44;15.07;;;9.93;;
14754;SDS011;7469;50.906;6.952;2023-02-22T10:30:19;16.67;;;9.87;;
14754;SDS011;7469;50.906;6.952;2023-02-22T10:32:52;12.77;;;9.33;;
14754;SDS011;7469;50.906;6.952;2023-02-22T10:35:25;14.43;;;9.67;;
14754;SDS011;7469;50.906;6.952;2023-02-22T10:37:56;13.00;;;9.00;;
14754;SDS011;7469;50.906;6.952;2023-02-22T10:40:29;15.30;;;9.80;;
14754;SDS011;7469;50.906;6.952;2023-02-22T10:43:01;12.53;;;8.93;;
14754;SDS011;7469;50.906;6.952;2023-02-22T10:45:30;14.77;;;9.47;;
14754;SDS011;7469;50.906;6.952;2023-02-22T10:48:01;13.53;;;8.57;;
14754;SDS011;7469;50.906;6.952;2023-02-22T10:50:34;13.27;;;8.77;;
14754;SDS011;7469;50.906;6.952;2023-02-22T10:53:05;12.13;;;8.20;;
14754;SDS011;7469;50.906;6.952;2023-02-22T10:55:35;13.13;;;9.57;;
14754;SDS011;7469;50.906;6.952;2023-02-22T10:58:24;11.47;;;8.60;;
14754;SDS011;7469;50.906;6.952;2023-02-22T11:00:52;12.30;;;8.80;;
14754;SDS011;7469;50.906;6.952;2023-02-22T11:03:21;15.60;;;8.23;;
14754;SDS011;7469;50.906;6.952;2023-02-22T11:05:50;11.53;;;8.33;;
14754;SDS011;7469;50.906;6.952;2023-02-22T11:08:23;10.00;;;7.97;;
14754;SDS011;7469;50.906;6.952;2023-02-22T11:10:54;11.07;;;7.40;;
14754;SDS011;7469;50.906;6.952;2023-02-22T11:13:26;8.80;;;6.60;;
14754;SDS011;7469;50.906;6.952;2023-02-22T11:15:57;10.13;;;6.53;;
14754;SDS011;7469;50.906;6.952;2023-02-22T11:18:28;9.10;;;6.70;;
14754;SDS011;7469;50.906;6.952;2023-02-22T11:21:00;10.27;;;6.50;;
14754;SDS011;7469;50.906;6.952;2023-02-22T11:23:30;12.60;;;6.37;;
14754;SDS011;7469;50.906;6.952;2023-02-22T11:26:01;9.27;;;6.40;;
14754;SDS011;7469;50.906;6.952;2023-02-22T11:28:33;9.63;;;6.50;;
14754;SDS011;7469;50.906;6.952;2023-02-22T11:31:10;9.73;;;6.40;;
14754;SDS011;7469;50.906;6.952;2023-02-22T11:33:47;7.77;;;5.77;;
14754;SDS011;7469;50.906;6.952;2023-02-22T11:36:31;8.80;;;5.77;;
14754;SDS011;7469;50.906;6.952;2023-02-22T11:39:04;10.20;;;6.10;;
14754;SDS011;7469;50.906;6.952;2023-02-22T11:41:46;8.33;;;5.87;;
14754;SDS011;7469;50.906;6.952;2023-02-22T11:44:21;7.63;;;5.40;;
14754;SDS011;7469;50.906;6.952;2023-02-22T11:46:52;7.33;;;5.30;;
14754;SDS011;7469;50.906;6.952;2023-02-22T11:49:22;6.73;;;5.00;;
14754;SDS011;7469;50.906;6.952;2023-02-22T11:52:01;8.33;;;5.67;;
14754;SDS011;7469;50.906;6.952;2023-02-22T11:54:44;7.20;;;5.03;;
14754;SDS011;7469;50.906;6.952;2023-02-22T11:57:30;9.17;;;4.57;;
14754;SDS011;7469;50.906;6.952;2023-02-22T12:00:17;7.60;;;5.03;;
14754;SDS011;7469;50.906;6.952;2023-02-22T12:02:55;7.47;;;5.50;;
14754;SDS011;7469;50.906;6.952;2023-02-22T12:05:44;6.60;;;5.10;;
14754;SDS011;7469;50.906;6.952;2023-02-22T12:08:28;8.33;;;5.50;;
14754;SDS011;7469;50.906;6.952;2023-02-22T12:11:03;7.03;;;5.10;;
14754;SDS011;7469;50.906;6.952;2023-02-22T12:13:44;6.97;;;4.33;;
14754;SDS011;7469;50.906;6.952;2023-02-22T12:16:26;7.77;;;5.23;;
14754;SDS011;7469;50.906;6.952;2023-02-22T12:19:06;7.20;;;5.57;;
14754;SDS011;7469;50.906;6.952;2023-02-22T12:21:41;11.43;;;5.77;;
14754;SDS011;7469;50.906;6.952;2023-02-22T12:24:13;6.60;;;5.10;;
14754;SDS011;7469;50.906;6.952;2023-02-22T12:26:47;7.97;;;4.90;;
14754;SDS011;7469;50.906;6.952;2023-02-22T12:29:19;7.30;;;5.10;;
14754;SDS011;7469;50.906;6.952;2023-02-22T12:31:55;6.47;;;5.07;;
14754;SDS011;7469;50.906;6.952;2023-02-22T12:34:28;11.77;;;5.77;;
14754;SDS011;7469;50.906;6.952;2023-02-22T12:36:59;8.67;;;5.83;;
14754;SDS011;7469;50.906;6.952;2023-02-22T12:39:36;7.03;;;4.83;;
14754;SDS011;7469;50.906;6.952;2023-02-22T12:42:20;7.90;;;5.63;;
14754;SDS011;7469;50.906;6.952;2023-02-22T12:44:55;10.87;;;5.27;;
14754;SDS011;7469;50.906;6.952;2023-02-22T12:47:30;9.27;;;5.07;;
14754;SDS011;7469;50.906;6.952;2023-02-22T12:50:04;11.73;;;6.23;;
14754;SDS011;7469;50.906;6.952;2023-02-22T12:52:42;5.97;;;4.83;;
14754;SDS011;7469;50.906;6.952;2023-02-22T12:55:18;11.57;;;5.30;;
14754;SDS011;7469;50.906;6.952;2023-02-22T12:57:52;8.87;;;5.47;;
14754;SDS011;7469;50.906;6.952;2023-02-22T13:00:24;9.20;;;5.10;;
14754;SDS011;7469;50.906;6.952;2023-02-22T13:02:59;9.00;;;5.60;;
14754;SDS011;7469;50.906;6.952;2023-02-22T13:05:32;9.97;;;5.43;;
14754;SDS011;7469;50.906;6.952;2023-02-22T13:08:16;8.53;;;5.57;;
14754;SDS011;7469;50.906;6.952;2023-02-22T13:10:55;8.90;;;5.43;;
14754;SDS011;7469;50.906;6.952;2023-02-22T13:13:35;7.07;;;5.23;;
14754;SDS011;7469;50.906;6.952;2023-02-22T13:16:12;9.10;;;5.97;;
14754;SDS011;7469;50.906;6.952;2023-02-22T13:18:51;8.70;;;5.57;;
14754;SDS011;7469;50.906;6.952;2023-02-22T13:21:27;8.53;;;6.00;;
14754;SDS011;7469;50.906;6.952;2023-02-22T13:24:02;7.80;;;5.80;;
14754;SDS011;7469;50.906;6.952;2023-02-22T13:26:39;12.67;;;7.13;;
14754;SDS011;7469;50.906;6.952;2023-02-22T13:29:12;9.73;;;6.50;;
14754;SDS011;7469;50.906;6.952;2023-02-22T13:31:47;11.27;;;5.87;;
14754;SDS011;7469;50.906;6.952;2023-02-22T13:37:45;11.03;;;5.57;;
14754;SDS011;7469;50.906;6.952;2023-02-22T13:40:44;8.77;;;5.47;;
14754;SDS011;7469;50.906;6.952;2023-02-22T13:46:24;9.63;;;5.83;;
14754;SDS011;7469;50.906;6.952;2023-02-22T13:49:18;7.57;;;5.43;;
14754;SDS011;7469;50.906;6.952;2023-02-22T13:51:57;9.43;;;5.27;;
14754;SDS011;7469;50.906;6.952;2023-02-22T13:54:33;9.70;;;5.10;;
14754;SDS011;7469;50.906;6.952;2023-02-22T13:57:16;7.07;;;4.80;;
14754;SDS011;7469;50.906;6.952;2023-02-22T13:59:46;8.03;;;5.40;;
14754;SDS011;7469;50.906;6.952;2023-02-22T14:02:31;8.77;;;5.17;;
14754;SDS011;7469;50.906;6.952;2023-02-22T14:08:02;8.43;;;5.33;;
14754;SDS011;7469;50.906;6.952;2023-02-22T14:10:37;10.03;;;5.67;;
14754;SDS011;7469;50.906;6.952;2023-02-22T14:13:11;12.27;;;6.10;;
14754;SDS011;7469;50.906;6.952;2023-02-22T14:18:44;10.67;;;6.10;;
14754;SDS011;7469;50.906;6.952;2023-02-22T14:21:15;6.57;;;4.43;;
14754;SDS011;7469;50.906;6.952;2023-02-22T14:23:45;9.27;;;6.03;;
14754;SDS011;7469;50.906;6.952;2023-02-22T14:26:17;6.63;;;5.10;;
14754;SDS011;7469;50.906;6.952;2023-02-22T14:28:52;7.67;;;5.50;;
14754;SDS011;7469;50.906;6.952;2023-02-22T14:31:23;8.43;;;5.43;;
14754;SDS011;7469;50.906;6.952;2023-02-22T14:34:03;8.00;;;5.43;;
14754;SDS011;7469;50.906;6.952;2023-02-22T14:36:35;7.67;;;5.43;;
14754;SDS011;7469;50.906;6.952;2023-02-22T14:39:14;9.33;;;5.67;;
14754;SDS011;7469;50.906;6.952;2023-02-22T14:41:52;8.73;;;4.70;;
14754;SDS011;7469;50.906;6.952;2023-02-22T14:44:29;7.33;;;5.30;;
14754;SDS011;7469;50.906;6.952;2023-02-22T14:47:02;8.20;;;5.77;;
14754;SDS011;7469;50.906;6.952;2023-02-22T14:49:34;11.37;;;5.33;;
14754;SDS011;7469;50.906;6.952;2023-02-22T14:52:10;8.23;;;5.60;;
14754;SDS011;7469;50.906;6.952;2023-02-22T14:54:48;8.43;;;5.60;;
14754;SDS011;7469;50.906;6.952;2023-02-22T14:57:28;9.20;;;5.77;;
14754;SDS011;7469;50.906;6.952;2023-02-22T15:00:06;7.33;;;5.53;;
14754;SDS011;7469;50.906;6.952;2023-02-22T15:02:46;14.30;;;5.70;;
14754;SDS011;7469;50.906;6.952;2023-02-22T15:05:18;10.40;;;5.73;;
14754;SDS011;7469;50.906;6.952;2023-02-22T15:07:50;6.33;;;4.47;;
14754;SDS011;7469;50.906;6.952;2023-02-22T15:10:25;8.77;;;5.27;;
14754;SDS011;7469;50.906;6.952;2023-02-22T15:12:57;8.23;;;5.07;;
14754;SDS011;7469;50.906;6.952;2023-02-22T15:15:37;6.63;;;4.80;;
14754;SDS011;7469;50.906;6.952;2023-02-22T15:18:16;6.97;;;5.00;;
14754;SDS011;7469;50.906;6.952;2023-02-22T15:20:49;7.83;;;5.07;;
14754;SDS011;7469;50.906;6.952;2023-02-22T15:23:23;10.57;;;5.43;;
14754;SDS011;7469;50.906;6.952;2023-02-22T15:25:55;11.17;;;5.33;;
14754;SDS011;7469;50.906;6.952;2023-02-22T15:28:26;7.63;;;5.20;;
14754;SDS011;7469;50.906;6.952;2023-02-22T15:31:16;8.70;;;5.27;;
14754;SDS011;7469;50.906;6.952;2023-02-22T15:33:52;8.67;;;5.20;;